Time;durP1;ratioP1;P1;durP2;ratioP2;P2;SDS_P1;SDS_P2;PMS_P1;PMS_P2;Temp;Humidity;BMP_temperature;BMP_pressure;BME280_temperature;BME280_humidity;BME280_pressure;Samples;Min_cycle;Max_cycle;Signal;HPM_P1;HPM_P2
2021/03/22 00:02:08;;;;;;;13.52;5.88;;;;;;;3.54;100.00;99353.94;5090902;28;20028;-71
2021/03/22 00:04:35;;;;;;;10.32;6.63;;;;;;;3.53;99.67;99355.63;5072687;28;20027;-71
2021/03/22 00:07:01;;;;;;;9.63;6.93;;;;;;;3.53;100.00;99352.25;5090520;28;20082;-71
2021/03/22 00:09:27;;;;;;;9.68;6.70;;;;;;;3.54;100.00;99344.69;5090875;28;20085;-70
2021/03/22 00:11:53;;;;;;;9.07;4.82;;;;;;;3.51;100.00;99334.69;5090681;28;20029;-70
2021/03/22 00:14:22;;;;;;;9.75;6.05;;;;;;;3.55;100.00;99325.44;5072484;28;20016;-71
2021/03/22 00:16:48;;;;;;;10.80;6.88;;;;;;;3.53;99.54;99330.50;5072805;28;20024;-71
2021/03/22 00:19:16;;;;;;;9.73;6.60;;;;;;;3.51;99.77;99328.84;5072685;28;20031;-71
2021/03/22 00:21:42;;;;;;;11.77;6.50;;;;;;;3.51;99.94;99318.78;5090607;28;20036;-71
2021/03/22 00:24:08;;;;;;;9.65;6.35;;;;;;;3.44;100.00;99302.97;5090571;28;20035;-71
2021/03/22 00:26:35;;;;;;;9.35;5.47;;;;;;;3.45;100.00;99309.63;5072088;28;20051;-71
2021/03/22 00:29:02;;;;;;;10.20;6.72;;;;;;;3.42;99.83;99296.28;5090604;28;20032;-71
2021/03/22 00:31:28;;;;;;;9.98;6.78;;;;;;;3.57;100.00;99293.59;5072539;28;20509;-71
2021/03/22 00:33:54;;;;;;;10.80;6.30;;;;;;;3.49;99.46;99281.13;5090502;28;20141;-71
2021/03/22 00:36:21;;;;;;;11.85;6.22;;;;;;;3.48;100.00;99261.06;5090647;28;20058;-70
2021/03/22 00:38:49;;;;;;;10.27;6.53;;;;;;;3.49;99.34;99260.19;5090540;28;20024;-71
2021/03/22 00:41:15;;;;;;;11.38;6.90;;;;;;;3.45;100.00;99244.34;5072637;28;20028;-71
2021/03/22 00:43:41;;;;;;;13.10;6.72;;;;;;;3.47;99.50;99255.19;5072393;28;20525;-71
2021/03/22 00:46:07;;;;;;;13.05;7.43;;;;;;;3.49;100.00;99258.53;5090256;28;20027;-71
2021/03/22 00:48:34;;;;;;;10.80;6.40;;;;;;;3.51;100.00;99256.81;5090583;28;20028;-71
2021/03/22 00:51:03;;;;;;;9.85;6.45;;;;;;;3.53;99.60;99261.81;5072347;28;20119;-71
2021/03/22 00:53:31;;;;;;;12.05;6.88;;;;;;;3.53;100.00;99271.88;5094023;28;20088;-71
2021/03/22 00:55:58;;;;;;;12.18;6.55;;;;;;;3.48;100.00;99254.38;5094031;28;20028;-70
2021/03/22 00:58:26;;;;;;;9.88;6.63;;;;;;;3.53;100.00;99235.91;5093773;28;20031;-71
2021/03/22 01:00:55;;;;;;;9.02;6.10;;;;;;;3.46;99.36;99220.91;5093729;28;20020;-69
2021/03/22 01:03:25;;;;;;;9.32;5.60;;;;;;;3.50;99.80;99222.53;5075817;28;20027;-70
2021/03/22 01:05:51;;;;;;;12.07;7.30;;;;;;;3.51;99.77;99213.28;5093522;28;20536;-71
2021/03/22 01:08:20;;;;;;;10.52;6.72;;;;;;;3.53;100.00;99194.84;5093769;28;20091;-71
2021/03/22 01:10:54;;;;;;;8.57;6.07;;;;;;;3.51;99.61;99186.50;5093763;28;20035;-70
2021/03/22 01:13:23;;;;;;;9.05;6.00;;;;;;;3.53;100.00;99175.59;5075888;28;20073;-71
2021/03/22 01:15:50;;;;;;;8.88;5.80;;;;;;;3.55;99.80;99164.66;5093633;28;20020;-72
2021/03/22 01:18:21;;;;;;;8.75;5.90;;;;;;;3.49;100.00;99153.03;5093580;28;20084;-71
2021/03/22 01:20:51;;;;;;;6.43;4.93;;;;;;;3.48;100.00;99132.94;5093380;28;20545;-71
2021/03/22 01:23:18;;;;;;;9.15;5.30;;;;;;;3.41;99.32;99122.16;5093711;28;20020;-71
2021/03/22 01:25:44;;;;;;;7.90;5.70;;;;;;;3.46;100.00;99144.69;5093191;28;20028;-70
2021/03/22 01:28:18;;;;;;;9.95;5.88;;;;;;;3.49;100.00;99140.47;5051655;28;20037;-71
2021/03/22 01:30:49;;;;;;;6.55;5.35;;;;;;;3.51;100.00;99141.28;5035351;28;20112;-71
2021/03/22 01:33:17;;;;;;;7.28;5.30;;;;;;;3.51;99.67;99123.69;5053111;28;20032;-72
2021/03/22 01:35:42;;;;;;;7.13;5.03;;;;;;;3.50;98.61;99113.66;5052825;28;20035;-70
2021/03/22 01:38:09;;;;;;;7.13;5.20;;;;;;;3.48;98.84;99118.72;5051874;28;20032;-71
2021/03/22 01:40:50;;;;;;;5.93;4.35;;;;;;;3.50;99.32;99114.50;5052775;28;20128;-71
2021/03/22 01:44:03;;;;;;;7.90;5.60;;;;;;;3.57;98.35;99127.78;5052693;28;20032;-72
2021/03/22 01:46:31;;;;;;;7.40;5.47;;;;;;;3.59;98.68;99127.75;5031834;28;20446;-71
2021/03/22 01:49:01;;;;;;;8.93;5.20;;;;;;;3.57;99.24;99126.94;5051335;28;20120;-71
2021/03/22 01:51:28;;;;;;;7.15;4.55;;;;;;;3.60;98.35;99124.41;5052690;28;20057;-72
2021/03/22 01:53:55;;;;;;;8.27;5.00;;;;;;;3.50;99.08;99106.13;5051319;28;20067;-71
2021/03/22 01:56:25;;;;;;;6.93;4.78;;;;;;;3.59;98.44;99127.75;5052464;28;20068;-71
2021/03/22 01:58:53;;;;;;;5.55;3.88;;;;;;;3.59;98.54;99122.75;5051260;28;20095;-70
2021/03/22 02:01:22;;;;;;;5.90;4.70;;;;;;;3.61;98.50;99123.53;5052295;28;20035;-71
2021/03/22 02:03:48;;;;;;;6.40;4.32;;;;;;;3.59;98.10;99111.00;5050778;28;20028;-70
2021/03/22 02:06:14;;;;;;;6.68;3.80;;;;;;;3.45;98.08;99078.56;5052165;28;20057;-70
2021/03/22 02:08:43;;;;;;;8.05;4.57;;;;;;;3.58;98.69;99094.28;5050838;28;20112;-70
2021/03/22 02:11:25;;;;;;;7.22;3.80;;;;;;;3.55;98.98;99086.78;5052244;28;20021;-70
2021/03/22 02:13:52;;;;;;;;;;;;;;;3.60;98.80;99091.75;5052720;28;20029;-70
2021/03/22 02:16:24;;;;;;;6.18;3.90;;;;;;;3.63;98.26;99092.53;5051948;28;20434;-70
2021/03/22 02:19:32;;;;;;;7.47;3.88;;;;;;;3.61;98.37;99088.38;5050842;28;20115;-71
2021/03/22 02:22:26;;;;;;;7.50;4.43;;;;;;;3.59;98.58;99085.06;5004858;28;20048;-71
2021/03/22 02:25:06;;;;;;;8.93;5.55;;;;;;;3.69;99.01;99094.13;5050542;28;20029;-70
2021/03/22 02:27:50;;;;;;;7.65;4.90;;;;;;;3.58;98.51;99084.25;5081332;28;20394;-70
2021/03/22 02:30:24;;;;;;;8.90;4.35;;;;;;;3.60;99.67;99072.50;5092330;28;20023;-71
2021/03/22 02:33:28;;;;;;;7.57;4.60;;;;;;;3.63;99.22;99069.91;5091975;28;20032;-71
2021/03/22 02:36:09;;;;;;;7.50;4.80;;;;;;;3.56;98.82;99057.47;5051243;28;20054;-71
2021/03/22 02:38:43;;;;;;;8.23;4.53;;;;;;;3.52;99.71;99066.75;5091924;28;20489;-71
2021/03/22 02:41:15;;;;;;;9.20;4.93;;;;;;;3.57;99.79;99070.00;5092002;28;20099;-71
2021/03/22 02:43:41;;;;;;;6.82;3.92;;;;;;;3.58;98.78;99070.84;5073820;28;20115;-70
2021/03/22 02:46:08;;;;;;;8.85;5.80;;;;;;;3.64;99.47;99064.06;5091649;28;20536;-71
2021/03/22 02:48:35;;;;;;;8.45;5.05;;;;;;;3.53;99.84;99060.84;5091969;28;20402;-71
2021/03/22 02:51:28;;;;;;;9.18;6.03;;;;;;;3.71;100.00;99065.63;5091555;28;20039;-71
2021/03/22 02:54:15;;;;;;;8.85;5.00;;;;;;;3.57;99.10;99054.09;5091700;28;20028;-71
2021/03/22 02:56:49;;;;;;;10.00;5.32;;;;;;;3.59;100.00;99045.69;5073686;28;20085;-71
2021/03/22 02:59:25;;;;;;;11.80;5.00;;;;;;;3.53;99.67;99048.31;5073720;28;20131;-70
2021/03/22 03:01:58;;;;;;;7.90;5.22;;;;;;;3.55;100.00;99044.09;5091718;28;20032;-71
2021/03/22 03:04:27;;;;;;;8.25;4.88;;;;;;;3.50;100.00;99038.31;5091634;28;20024;-72
2021/03/22 03:07:01;;;;;;;8.43;5.22;;;;;;;3.51;100.00;99053.34;5091400;28;20077;-70
2021/03/22 03:09:30;;;;;;;11.40;6.18;;;;;;;3.64;100.00;99048.16;5091621;28;20035;-72
2021/03/22 03:12:24;;;;;;;10.30;5.70;;;;;;;3.56;100.00;99054.97;5091477;28;20485;-72
2021/03/22 03:14:56;;;;;;;10.25;5.72;;;;;;;3.63;100.00;99047.31;5069030;28;20060;-71
2021/03/22 03:17:24;;;;;;;10.60;5.32;;;;;;;3.53;100.00;99042.47;5073159;28;20028;-71
2021/03/22 03:19:54;;;;;;;8.40;4.97;;;;;;;3.53;100.00;99047.50;5073325;28;20040;-71
2021/03/22 03:22:21;;;;;;;8.68;5.22;;;;;;;3.51;100.00;99053.34;5072998;28;20028;-70
2021/03/22 03:24:49;;;;;;;10.38;5.55;;;;;;;3.58;99.39;99056.63;5091527;28;20024;-72
2021/03/22 03:27:15;;;;;;;9.32;5.50;;;;;;;3.61;100.00;99055.72;5073068;28;20055;-71
2021/03/22 03:29:43;;;;;;;8.82;5.45;;;;;;;3.61;100.00;99049.00;5091173;28;20024;-71
2021/03/22 03:32:13;;;;;;;8.98;5.97;;;;;;;3.63;99.73;99046.47;5091300;28;20421;-70
2021/03/22 03:34:40;;;;;;;11.35;6.10;;;;;;;3.63;99.48;99048.97;5073035;28;20477;-71
2021/03/22 03:37:07;;;;;;;10.23;5.63;;;;;;;3.63;100.00;99039.78;5072846;28;20016;-71
2021/03/22 03:39:33;;;;;;;7.97;5.38;;;;;;;3.61;100.00;99038.13;5091189;28;20103;-71
2021/03/22 03:41:59;;;;;;;11.13;6.40;;;;;;;3.54;99.76;99032.38;5073070;28;20024;-71
2021/03/22 03:44:24;;;;;;;11.52;5.70;;;;;;;3.58;99.92;99031.50;5091032;28;20082;-71
2021/03/22 03:46:51;;;;;;;11.82;5.70;;;;;;;3.57;100.00;99031.50;5091048;28;20031;-71
2021/03/22 03:49:18;;;;;;;13.73;6.90;;;;;;;3.66;100.00;99023.81;5091220;28;20107;-72
2021/03/22 03:51:43;;;;;;;11.52;6.18;;;;;;;3.58;100.00;99010.56;5091177;28;20031;-72
2021/03/22 03:54:10;;;;;;;9.13;6.72;;;;;;;3.66;99.76;99019.63;5072956;28;20020;-72
2021/03/22 03:56:37;;;;;;;12.02;7.13;;;;;;;3.70;100.00;99020.41;5091531;28;20478;-72
2021/03/22 03:59:06;;;;;;;11.85;6.63;;;;;;;3.55;100.00;98996.34;5072747;28;20028;-71
2021/03/22 04:01:36;;;;;;;12.38;7.38;;;;;;;3.64;100.00;99010.47;5090865;28;20362;-71
2021/03/22 04:04:04;;;;;;;14.13;7.35;;;;;;;3.71;100.00;99030.44;5072721;28;20031;-71
2021/03/22 04:06:32;;;;;;;12.75;7.82;;;;;;;3.67;100.00;99038.03;5090663;28;20044;-71
2021/03/22 04:09:10;;;;;;;13.38;7.78;;;;;;;3.66;100.00;99013.78;5072584;28;20032;-71
2021/03/22 04:11:46;;;;;;;11.20;6.93;;;;;;;3.59;100.00;99020.56;5090643;28;20032;-69
2021/03/22 04:14:23;;;;;;;15.02;7.40;;;;;;;3.54;100.00;99010.59;5090868;28;20028;-71
2021/03/22 04:16:51;;;;;;;15.95;8.48;;;;;;;3.61;100.00;99015.50;5090807;28;20481;-71
2021/03/22 04:19:23;;;;;;;15.35;8.30;;;;;;;3.59;100.00;99012.19;5072688;28;20036;-71
2021/03/22 04:21:49;;;;;;;12.63;8.27;;;;;;;3.59;100.00;99010.53;5090627;28;20024;-72
2021/03/22 04:24:17;;;;;;;17.45;8.30;;;;;;;3.60;100.00;99007.19;5090824;28;20107;-71
2021/03/22 04:26:42;;;;;;;13.25;8.27;;;;;;;3.60;100.00;99011.38;5093161;28;20048;-71
2021/03/22 04:29:10;;;;;;;16.50;8.63;;;;;;;3.61;100.00;99005.47;5076287;28;20016;-70
2021/03/22 04:31:36;;;;;;;15.40;8.82;;;;;;;3.62;100.00;99007.97;5076265;28;20161;-70
2021/03/22 04:34:02;;;;;;;13.25;8.07;;;;;;;3.59;100.00;99002.16;5076157;28;20085;-71
2021/03/22 04:36:36;;;;;;;12.20;6.15;;;;;;;3.53;100.00;98991.34;5076131;28;20414;-71
2021/03/22 04:39:04;;;;;;;14.73;8.85;;;;;;;3.53;100.00;98983.81;5093497;28;20028;-73
2021/03/22 04:41:38;;;;;;;14.52;8.40;;;;;;;3.54;100.00;98990.50;5093739;28;20594;-72
2021/03/22 04:44:07;;;;;;;15.15;9.43;;;;;;;3.56;100.00;98989.66;5094366;28;20539;-71
2021/03/22 04:46:33;;;;;;;16.10;9.95;;;;;;;3.48;100.00;98979.72;5094052;28;20074;-71
2021/03/22 04:48:59;;;;;;;15.13;8.95;;;;;;;3.61;100.00;98986.22;5076078;28;20519;-70
2021/03/22 04:51:28;;;;;;;13.82;8.40;;;;;;;3.53;100.00;98988.00;5094112;28;20031;-72
2021/03/22 04:53:54;;;;;;;13.68;9.18;;;;;;;3.58;100.00;98980.41;5094511;28;20031;-71
2021/03/22 04:56:27;;;;;;;17.70;10.05;;;;;;;3.60;100.00;98986.25;5094319;28;20020;-73
2021/03/22 04:58:52;;;;;;;16.02;8.90;;;;;;;3.56;100.00;98987.16;5074932;28;20024;-74
2021/03/22 05:01:18;;;;;;;20.07;11.00;;;;;;;3.61;100.00;98991.22;4718732;28;10000963;-73
2021/03/22 05:03:50;;;;;;;18.40;9.75;;;;;;;3.60;100.00;98992.09;5071329;28;20020;-73
2021/03/22 05:06:23;;;;;;;17.35;10.15;;;;;;;3.61;100.00;98998.78;5071468;28;20504;-74
2021/03/22 05:08:48;;;;;;;15.43;8.88;;;;;;;3.60;100.00;98982.06;5052490;28;20060;-74
2021/03/22 05:11:17;;;;;;;18.63;10.23;;;;;;;3.44;100.00;98961.38;5070255;28;20111;-75
2021/03/22 05:13:43;;;;;;;16.50;10.10;;;;;;;3.57;100.00;98971.19;5070686;28;20044;-74
2021/03/22 05:16:08;;;;;;;17.45;10.40;;;;;;;3.58;100.00;98961.16;5052881;28;20477;-74
2021/03/22 05:18:37;;;;;;;19.02;9.95;;;;;;;3.58;100.00;98967.84;5052387;28;20032;-74
2021/03/22 05:21:06;;;;;;;16.60;10.32;;;;;;;3.67;100.00;98973.53;5070217;28;20080;-74
2021/03/22 05:23:34;;;;;;;16.92;10.05;;;;;;;3.73;100.00;98982.66;5069826;28;20177;-74
2021/03/22 05:25:59;;;;;;;15.82;9.57;;;;;;;3.69;100.00;98984.41;5052238;28;20039;-73
2021/03/22 05:28:28;;;;;;;16.45;10.73;;;;;;;3.71;100.00;98974.31;5052543;28;20032;-73
2021/03/22 05:30:55;;;;;;;17.25;10.63;;;;;;;3.82;100.00;98987.53;5069665;28;20094;-73
2021/03/22 05:33:22;;;;;;;17.63;11.07;;;;;;;3.88;100.00;98992.47;5069924;28;20024;-73
2021/03/22 05:35:55;;;;;;;19.13;12.18;;;;;;;3.82;100.00;98990.91;5051634;28;20020;-73
2021/03/22 05:38:25;;;;;;;22.50;12.75;;;;;;;3.88;100.00;98990.75;5069135;28;20518;-74
2021/03/22 05:40:59;;;;;;;22.02;13.98;;;;;;;3.92;100.00;98994.88;5052593;28;20063;-75
2021/03/22 05:43:40;;;;;;;26.95;14.77;;;;;;;4.02;100.00;99000.59;5070507;28;20082;-73
2021/03/22 05:46:21;;;;;;;21.27;13.65;;;;;;;4.22;100.00;99003.56;5069582;28;20035;-73
2021/03/22 05:49:18;;;;;;;20.40;12.73;;;;;;;4.43;100.00;98993.13;5068522;28;20036;-74
2021/03/22 05:51:52;;;;;;;19.10;11.95;;;;;;;4.21;100.00;98990.19;5069043;28;20051;-73
2021/03/22 05:54:42;;;;;;;18.13;11.02;;;;;;;4.19;100.00;98981.84;5050386;28;20025;-74
2021/03/22 05:57:20;;;;;;;16.95;10.95;;;;;;;4.29;100.00;98980.81;5068939;28;20060;-74
2021/03/22 05:59:56;;;;;;;19.90;11.07;;;;;;;4.74;100.00;98989.13;5050048;28;20033;-74
2021/03/22 06:02:24;;;;;;;18.33;11.55;;;;;;;4.57;100.00;98987.81;5060501;28;20035;-75
2021/03/22 06:04:54;;;;;;;21.38;13.18;;;;;;;4.40;100.00;98988.13;5070282;28;20043;-73
2021/03/22 06:07:23;;;;;;;22.50;14.25;;;;;;;4.47;100.00;98984.66;5069399;28;20032;-73
2021/03/22 06:09:51;;;;;;;27.75;14.57;;;;;;;4.49;100.00;98989.66;5069716;28;20035;-73
2021/03/22 06:12:33;;;;;;;21.85;13.82;;;;;;;4.75;100.00;98995.00;5087634;28;20031;-73
2021/03/22 06:15:34;;;;;;;22.20;14.40;;;;;;;4.29;100.00;98998.41;5087622;28;20093;-75
2021/03/22 06:18:34;;;;;;;19.42;12.13;;;;;;;4.43;100.00;98995.63;5060490;28;20036;-74
2021/03/22 06:21:14;;;;;;;24.88;16.52;;;;;;;4.85;100.00;99004.00;5069005;28;20111;-73
2021/03/22 06:23:40;;;;;;;21.33;14.05;;;;;;;4.21;100.00;99000.25;5085624;28;20032;-74
2021/03/22 06:26:43;;;;;;;16.45;11.25;;;;;;;4.39;100.00;98994.88;5068179;28;20032;-73
2021/03/22 06:29:21;;;;;;;25.42;14.35;;;;;;;4.41;100.00;98997.34;5064137;28;20101;-74
2021/03/22 06:31:50;;;;;;;18.38;12.15;;;;;;;4.86;100.00;98995.59;5068659;28;20039;-74
2021/03/22 06:34:21;;;;;;;14.07;9.63;;;;;;;4.59;100.00;98991.97;5069542;28;20560;-74
2021/03/22 06:36:47;;;;;;;11.85;8.10;;;;;;;4.40;100.00;98993.16;5069496;28;20027;-74
2021/03/22 06:39:13;;;;;;;17.38;11.90;;;;;;;4.65;100.00;98968.34;5087386;28;20032;-74
2021/03/22 06:41:51;;;;;;;19.42;11.93;;;;;;;4.34;100.00;98983.22;5069603;28;20043;-74
2021/03/22 06:44:36;;;;;;;13.93;8.60;;;;;;;4.19;100.00;98983.50;5069140;28;20029;-75
2021/03/22 06:47:14;;;;;;;16.02;8.90;;;;;;;4.21;100.00;98981.81;5067144;28;20060;-75
2021/03/22 06:49:45;;;;;;;15.07;8.60;;;;;;;4.50;100.00;98977.03;5048573;28;20437;-73
2021/03/22 06:52:14;;;;;;;12.68;8.60;;;;;;;4.28;100.00;98973.25;5049200;28;20047;-74
2021/03/22 06:54:55;;;;;;;13.32;8.25;;;;;;;4.46;100.00;98982.16;5049711;28;20123;-73
2021/03/22 06:57:22;;;;;;;11.93;7.17;;;;;;;4.31;100.00;98975.75;5049760;28;20399;-74
2021/03/22 07:00:12;;;;;;;12.15;8.07;;;;;;;4.70;99.49;98972.44;5048879;28;20121;-72
2021/03/22 07:02:59;;;;;;;12.20;8.43;;;;;;;4.71;100.00;98981.66;5080299;28;20028;-75
2021/03/22 07:05:24;;;;;;;16.90;10.52;;;;;;;4.38;98.83;98977.25;5087977;28;20497;-73
2021/03/22 07:08:11;;;;;;;15.88;9.88;;;;;;;4.37;99.52;98968.91;5069580;28;20061;-74
2021/03/22 07:10:54;;;;;;;15.57;9.93;;;;;;;4.71;98.26;98975.78;5069081;28;20503;-73
2021/03/22 07:13:28;;;;;;;11.57;7.72;;;;;;;4.46;98.05;98982.97;5087400;28;20114;-73
2021/03/22 07:15:56;;;;;;;7.97;5.28;;;;;;;4.40;97.33;98978.06;5086958;28;20028;-74
2021/03/22 07:18:23;;;;;;;9.27;5.45;;;;;;;4.33;97.08;98977.38;5087509;28;20529;-74
2021/03/22 07:21:11;;;;;;;7.55;5.20;;;;;;;4.30;97.34;98976.59;5068983;28;20417;-74
2021/03/22 07:23:57;;;;;;;7.32;5.28;;;;;;;4.51;97.47;98986.25;5069775;28;20032;-73
2021/03/22 07:26:45;;;;;;;5.25;3.65;;;;;;;4.33;98.83;98992.47;5087352;28;20054;-74
2021/03/22 07:29:22;;;;;;;7.03;4.22;;;;;;;4.43;97.57;99008.22;5086829;28;20024;-74
2021/03/22 07:31:58;;;;;;;10.50;7.68;;;;;;;4.62;96.87;99004.47;5068980;28;20473;-73
2021/03/22 07:34:48;;;;;;;11.63;8.50;;;;;;;4.84;95.95;99009.88;5068819;28;20390;-73
2021/03/22 07:37:36;;;;;;;10.20;7.03;;;;;;;4.49;97.63;99033.25;5068185;28;20031;-72
2021/03/22 07:40:09;;;;;;;17.40;11.60;;;;;;;4.54;97.10;99031.47;5087016;28;20024;-73
2021/03/22 07:42:48;;;;;;;15.52;11.50;;;;;;;4.11;97.31;99041.50;5068720;28;20035;-74
2021/03/22 07:45:43;;;;;;;8.05;5.45;;;;;;;4.42;96.98;99034.22;5086535;28;20119;-73
2021/03/22 07:48:24;;;;;;;10.82;7.15;;;;;;;4.51;96.95;99026.50;5068614;28;20036;-74
2021/03/22 07:51:15;;;;;;;6.15;4.43;;;;;;;4.11;97.52;99026.41;5087142;28;20059;-74
2021/03/22 07:53:51;;;;;;;8.25;5.63;;;;;;;4.50;97.69;99022.31;5068799;28;20036;-73
2021/03/22 07:56:46;;;;;;;8.57;5.80;;;;;;;4.50;96.20;99016.47;5068706;28;20089;-73
2021/03/22 07:59:33;;;;;;;11.73;7.00;;;;;;;4.13;95.66;99014.63;5029919;28;20735;-74
2021/03/22 08:02:26;;;;;;;11.55;7.22;;;;;;;4.43;97.44;99000.66;5090255;28;20043;-74
2021/03/22 08:05:32;;;;;;;8.38;5.70;;;;;;;4.04;97.14;98979.59;5091041;28;20100;-74
2021/03/22 08:08:16;;;;;;;15.70;9.25;;;;;;;3.98;97.89;98967.13;5090414;28;20507;-74
2021/03/22 08:10:49;;;;;;;18.00;9.43;;;;;;;4.16;96.51;98953.41;5072574;28;20158;-75
2021/03/22 08:13:15;;;;;;;9.80;6.38;;;;;;;4.00;96.66;98950.31;5072201;28;20036;-74
2021/03/22 08:15:53;;;;;;;7.32;5.03;;;;;;;4.10;96.17;98951.81;5090684;28;20024;-74
2021/03/22 08:18:22;;;;;;;13.10;7.00;;;;;;;4.15;97.28;98946.72;5072535;28;20017;-74
2021/03/22 08:20:51;;;;;;;14.52;6.75;;;;;;;4.20;97.06;98947.44;5090395;28;20067;-75
2021/03/22 08:23:24;;;;;;;15.70;8.70;;;;;;;4.31;97.24;98936.34;5090924;28;20036;-74
2021/03/22 08:25:52;;;;;;;10.13;5.22;;;;;;;3.81;96.50;98935.63;5072440;28;20118;-74
2021/03/22 08:28:32;;;;;;;16.33;7.80;;;;;;;4.28;96.21;98948.94;5071932;28;20151;-74
2021/03/22 08:31:18;;;;;;;28.17;11.30;;;;;;;4.51;95.06;98962.78;5072481;28;20672;-74
2021/03/22 08:33:49;;;;;;;9.70;5.43;;;;;;;4.10;96.96;98958.56;5089655;28;20497;-73
2021/03/22 08:36:30;;;;;;;7.50;4.03;;;;;;;4.08;95.91;98942.66;5071069;28;20036;-74
2021/03/22 08:39:03;;;;;;;4.45;2.40;;;;;;;3.97;95.00;98947.88;5072372;28;20416;-73
2021/03/22 08:41:37;;;;;;;7.50;3.05;;;;;;;4.40;94.67;98942.84;5090294;28;20108;-73
2021/03/22 08:44:17;;;;;;;17.50;6.30;;;;;;;4.89;93.71;98937.63;5089300;28;20576;-71
2021/03/22 08:46:58;;;;;;;5.78;2.75;;;;;;;4.40;95.67;98935.31;5071666;28;20043;-74
2021/03/22 08:49:45;;;;;;;3.78;2.17;;;;;;;4.50;93.72;98928.41;5071827;28;20105;-73
2021/03/22 08:52:19;;;;;;;9.15;5.05;;;;;;;4.33;95.08;98924.56;5089111;28;20040;-74
2021/03/22 08:54:46;;;;;;;10.45;5.85;;;;;;;4.71;94.55;98923.75;5071990;28;20028;-73
2021/03/22 08:57:26;;;;;;;9.70;5.78;;;;;;;5.05;95.93;98909.53;5071634;28;20115;-74
2021/03/22 09:00:29;;;;;;;23.20;10.93;;;;;;;5.33;92.21;98916.47;5071398;28;20446;-75
2021/03/22 09:02:58;;;;;;;15.70;8.80;;;;;;;5.25;93.93;98911.56;5089250;28;20409;-74
2021/03/22 09:05:26;;;;;;;39.92;18.08;;;;;;;5.49;93.45;98915.19;5071786;28;20032;-74
2021/03/22 09:07:51;;;;;;;17.52;8.77;;;;;;;5.67;94.48;98918.09;5089578;28;20032;-73
2021/03/22 09:10:23;;;;;;;14.40;7.70;;;;;;;5.37;93.29;98918.03;5071365;28;20039;-75
2021/03/22 09:12:49;;;;;;;27.00;9.63;;;;;;;5.34;93.81;98915.56;5087578;28;20053;-74
2021/03/22 09:15:38;;;;;;;5.28;2.60;;;;;;;5.08;91.27;98908.63;5072043;28;20043;-74
2021/03/22 09:18:03;;;;;;;9.63;4.80;;;;;;;5.09;93.86;98893.50;5071358;28;20043;-73
2021/03/22 09:20:32;;;;;;;10.73;4.95;;;;;;;5.10;92.88;98891.81;5070668;28;20028;-73
2021/03/22 09:23:24;;;;;;;9.82;4.88;;;;;;;5.01;93.95;98897.06;5070796;28;20028;-74
2021/03/22 09:25:56;;;;;;;5.10;3.00;;;;;;;5.24;93.71;98885.59;5070912;28;20119;-75
2021/03/22 09:28:25;;;;;;;10.18;5.30;;;;;;;5.99;92.25;98876.94;5070999;28;20412;-74
2021/03/22 09:31:16;;;;;;;6.85;3.45;;;;;;;5.49;93.15;98900.06;5089605;28;20028;-75
2021/03/22 09:33:54;;;;;;;31.90;8.60;;;;;;;5.21;92.00;98913.34;5078016;28;20040;-74
2021/03/22 09:36:39;;;;;;;43.08;13.02;;;;;;;5.70;91.17;98912.16;5068856;28;20036;-72
2021/03/22 09:39:19;;;;;;;6.72;3.20;;;;;;;5.09;93.52;98906.06;5071358;28;20084;-74
2021/03/22 09:42:12;;;;;;;10.95;5.13;;;;;;;5.96;92.47;98897.19;5072051;28;20036;-74
2021/03/22 09:44:58;;;;;;;9.25;5.78;;;;;;;5.00;93.45;98885.31;5035073;28;20028;-74
2021/03/22 09:47:26;;;;;;;11.52;6.05;;;;;;;5.31;92.75;98870.31;5047758;28;20045;-73
2021/03/22 09:50:04;;;;;;;12.45;6.78;;;;;;;5.43;94.76;98885.13;5049228;28;20229;-74
2021/03/22 09:52:33;;;;;;;11.27;6.15;;;;;;;5.19;94.19;98877.28;5031880;28;20065;-73
2021/03/22 09:55:21;;;;;;;10.30;5.68;;;;;;;5.57;94.05;98863.72;5049798;28;20429;-75
2021/03/22 09:57:49;;;;;;;9.40;5.70;;;;;;;5.65;91.84;98864.38;5065429;28;20035;-74
2021/03/22 10:00:33;;;;;;;11.40;6.53;;;;;;;5.55;92.31;98870.50;5031390;28;20047;-73
2021/03/22 10:03:28;;;;;;;14.30;7.43;;;;;;;5.27;93.55;98869.53;5080297;28;20070;-74
2021/03/22 10:05:59;;;;;;;29.83;15.10;;;;;;;5.60;92.12;98856.13;5026044;28;20127;-74
2021/03/22 10:08:32;;;;;;;7.57;3.92;;;;;;;5.47;90.79;98866.56;5087179;28;20028;-74
2021/03/22 10:11:01;;;;;;;26.05;14.55;;;;;;;5.87;91.70;98867.16;5069155;28;20793;-72
2021/03/22 10:13:43;;;;;;;27.60;15.90;;;;;;;5.84;91.56;98865.56;5090119;28;20032;-74
2021/03/22 10:16:12;;;;;;;;;;;;;;;5.49;91.27;98869.84;5073013;28;20118;-74
2021/03/22 10:19:03;;;;;;;25.42;15.48;;;;;;;5.10;91.99;98894.31;5089661;28;20474;-73
2021/03/22 10:21:51;;;;;;;17.92;10.40;;;;;;;5.50;92.02;98905.09;5090017;28;20119;-74
2021/03/22 10:24:35;;;;;;;7.68;5.13;;;;;;;5.15;91.22;98898.38;5071440;28;20493;-73
2021/03/22 10:27:02;;;;;;;6.05;3.67;;;;;;;5.03;90.62;98892.81;5089449;28;20056;-74
2021/03/22 10:29:34;;;;;;;7.88;3.97;;;;;;;5.06;90.40;98887.69;5071613;28;20024;-74
2021/03/22 10:32:07;;;;;;;4.93;2.95;;;;;;;5.24;92.41;98885.59;5089996;28;20108;-74
2021/03/22 10:34:53;;;;;;;2.65;1.70;;;;;;;4.90;89.78;98896.47;5089740;28;20750;-73
2021/03/22 10:37:35;;;;;;;4.18;2.42;;;;;;;5.10;91.45;98912.78;5071865;28;20028;-74
2021/03/22 10:40:21;;;;;;;;;;;;;;;5.74;90.71;98893.56;5072161;28;20032;-74
2021/03/22 10:42:46;;;;;;;9.18;4.60;;;;;;;5.27;92.93;98894.72;5071742;28;19916;-74
2021/03/22 10:45:17;;;;;;;12.80;6.82;;;;;;;5.37;92.13;98887.81;5071617;28;20039;-74
2021/03/22 10:47:44;;;;;;;12.10;7.13;;;;;;;5.81;93.37;98880.75;5088488;28;20062;-74
2021/03/22 10:50:35;;;;;;;10.65;6.68;;;;;;;5.39;94.52;98888.59;5071164;28;20562;-74
2021/03/22 10:53:06;;;;;;;12.52;8.25;;;;;;;5.55;91.51;98885.63;5071034;28;20036;-74
2021/03/22 10:55:34;;;;;;;15.63;10.88;;;;;;;5.76;93.54;98887.63;5089294;28;20070;-73
2021/03/22 10:58:06;;;;;;;8.43;5.50;;;;;;;5.49;93.28;98864.78;5089318;28;20039;-74
2021/03/22 11:00:45;;;;;;;8.27;6.63;;;;;;;5.59;92.67;98881.34;5089246;28;20071;-74
2021/03/22 11:03:19;;;;;;;8.85;6.22;;;;;;;5.63;93.26;98880.38;5070711;28;20035;-74
2021/03/22 11:05:45;;;;;;;13.93;8.50;;;;;;;5.62;94.35;98886.31;5068212;28;20039;-74
2021/03/22 11:08:28;;;;;;;10.88;7.82;;;;;;;5.63;92.94;98872.81;5068959;28;20082;-75
2021/03/22 11:11:11;;;;;;;9.00;5.82;;;;;;;5.45;94.02;98885.94;5050502;28;20112;-74
2021/03/22 11:13:49;;;;;;;9.82;7.05;;;;;;;5.66;94.01;98863.50;5066927;28;20036;-75
2021/03/22 11:16:36;;;;;;;12.25;8.40;;;;;;;5.59;94.22;98888.88;5060447;28;20107;-74
2021/03/22 11:19:30;;;;;;;13.05;9.73;;;;;;;5.79;94.33;98889.22;5031494;28;20036;-74
2021/03/22 11:22:29;;;;;;;14.38;10.57;;;;;;;5.74;95.36;98886.00;5048882;28;20025;-74
2021/03/22 11:24:55;;;;;;;11.52;8.57;;;;;;;5.80;93.17;98885.84;5030841;28;20546;-74
2021/03/22 11:27:26;;;;;;;12.60;9.15;;;;;;;6.12;94.32;98873.19;5065747;28;20063;-74
2021/03/22 11:29:59;;;;;;;11.48;8.10;;;;;;;5.93;93.87;98885.50;5052086;28;20045;-74
2021/03/22 11:32:33;;;;;;;12.63;8.52;;;;;;;6.11;91.88;98882.47;5068829;28;20036;-74
2021/03/22 11:35:25;;;;;;;32.75;22.20;;;;;;;6.26;91.49;98880.38;5066111;28;20036;-75
2021/03/22 11:37:56;;;;;;;11.07;6.95;;;;;;;6.41;91.52;98878.25;5068343;28;20031;-73
2021/03/22 11:40:29;;;;;;;12.00;7.60;;;;;;;6.54;90.43;98877.00;5049955;28;20038;-75
2021/03/22 11:43:01;;;;;;;13.48;9.02;;;;;;;6.39;92.29;98876.63;5035209;28;20518;-75
2021/03/22 11:45:40;;;;;;;11.70;7.88;;;;;;;5.95;93.09;98867.78;5030313;28;20468;-73
2021/03/22 11:48:26;;;;;;;11.40;7.10;;;;;;;6.40;93.28;98874.06;5046773;28;20043;-74
2021/03/22 11:51:09;;;;;;;7.70;4.95;;;;;;;5.93;91.56;98875.41;5040254;28;20049;-74
2021/03/22 11:54:06;;;;;;;8.50;5.45;;;;;;;6.49;91.55;98868.75;5047908;28;20029;-73
2021/03/22 11:56:37;;;;;;;5.30;3.83;;;;;;;6.16;93.98;98867.19;5047380;28;20570;-73
2021/03/22 11:59:16;;;;;;;4.22;3.15;;;;;;;6.65;91.30;98869.13;5030427;28;20033;-75
2021/03/22 12:02:12;;;;;;;6.00;3.85;;;;;;;6.49;91.81;98873.81;5041311;28;20440;-74
2021/03/22 12:25:55;;;;;;;3.38;2.35;;;;;;;6.19;88.36;98888.97;5121691;27;20386;-73
2021/03/22 12:28:20;;;;;;;7.93;4.25;;;;;;;6.34;89.09;98902.00;5104317;28;20051;-73